createdAt,value
2023-05-19T00:02:21.093Z,76.77
2023-05-19T00:04:49.719Z,77.58
2023-05-19T00:07:20.613Z,77.92
2023-05-19T00:09:48.369Z,78.05
2023-05-19T00:12:15.799Z,78.53
2023-05-19T00:14:43.174Z,79.16
2023-05-19T00:17:10.634Z,78.95
2023-05-19T00:19:38.242Z,78.85
2023-05-19T00:22:05.554Z,78.93
2023-05-19T00:24:33.262Z,79.10
2023-05-19T00:27:01.328Z,79.22
2023-05-19T00:29:29.221Z,78.77
2023-05-19T00:31:56.831Z,78.74
2023-05-19T00:34:24.057Z,78.32
2023-05-19T00:36:51.275Z,78.14
2023-05-19T00:39:18.329Z,77.70
2023-05-19T00:41:45.627Z,77.80
2023-05-19T00:44:12.692Z,77.84
2023-05-19T00:46:39.841Z,77.74
2023-05-19T00:49:06.818Z,77.78
2023-05-19T00:51:33.887Z,78.02
2023-05-19T00:54:01.317Z,77.87
2023-05-19T00:56:28.662Z,77.44
2023-05-19T00:58:56.046Z,77.55
2023-05-19T01:01:23.551Z,78.17
2023-05-19T01:03:51.618Z,77.67
2023-05-19T01:06:22.310Z,77.44
2023-05-19T01:08:51.799Z,77.61
2023-05-19T01:11:19.466Z,77.65
2023-05-19T01:13:46.635Z,77.94
2023-05-19T01:16:28.377Z,77.97
2023-05-19T01:19:29.272Z,78.03
2023-05-19T01:22:02.542Z,78.40
2023-05-19T01:24:47.973Z,78.91
2023-05-19T01:27:33.968Z,79.24
2023-05-19T01:30:20.074Z,80.17
2023-05-19T01:32:50.201Z,81.57
2023-05-19T01:35:17.630Z,81.06
2023-05-19T01:37:46.340Z,81.29
2023-05-19T01:40:13.657Z,80.81
2023-05-19T01:42:41.698Z,80.93
2023-05-19T01:45:12.288Z,81.24
2023-05-19T01:47:43.398Z,81.01
2023-05-19T01:50:11.231Z,80.83
2023-05-19T01:52:38.600Z,81.14
2023-05-19T01:55:06.630Z,80.74
2023-05-19T01:57:33.578Z,78.58
2023-05-19T02:00:25.563Z,79.35
2023-05-19T02:02:56.644Z,78.78
2023-05-19T02:05:31.770Z,78.01
2023-05-19T02:08:06.367Z,77.51
2023-05-19T02:10:37.565Z,76.16
2023-05-19T02:13:09.193Z,75.36
2023-05-19T02:15:42.827Z,73.95
2023-05-19T02:18:11.966Z,73.89
2023-05-19T02:20:40.077Z,74.07
2023-05-19T02:23:07.359Z,74.11
2023-05-19T02:25:34.962Z,74.47
2023-05-19T02:28:02.156Z,73.22
2023-05-19T02:30:32.290Z,72.66
2023-05-19T02:33:01.422Z,71.96
2023-05-19T02:35:28.623Z,72.15
2023-05-19T02:37:55.685Z,70.88
2023-05-19T02:40:23.113Z,71.26
2023-05-19T02:42:50.473Z,70.30
2023-05-19T02:45:17.709Z,69.58
2023-05-19T02:47:44.950Z,69.12
2023-05-19T02:50:12.010Z,68.00
2023-05-19T02:52:39.198Z,68.00
2023-05-19T02:55:06.680Z,67.72
2023-05-19T02:57:35.220Z,67.17
2023-05-19T03:00:02.810Z,67.59
2023-05-19T03:02:34.330Z,67.08
2023-05-19T03:05:03.787Z,67.88
2023-05-19T03:07:33.918Z,67.37
2023-05-19T03:10:03.950Z,68.02
2023-05-19T03:12:32.626Z,68.02
2023-05-19T03:15:00.372Z,68.40
2023-05-19T03:17:33.957Z,68.35
2023-05-19T03:20:01.755Z,68.80
2023-05-19T03:22:32.418Z,69.21
2023-05-19T03:25:00.029Z,69.95
2023-05-19T03:27:27.028Z,70.02
2023-05-19T03:29:54.914Z,70.20
2023-05-19T03:32:22.498Z,70.53
2023-05-19T03:34:50.877Z,70.61
2023-05-19T03:37:18.036Z,71.67
2023-05-19T03:39:45.566Z,71.93
2023-05-19T03:42:14.097Z,72.90
2023-05-19T03:44:41.311Z,72.83
2023-05-19T03:47:08.477Z,73.77
2023-05-19T03:49:54.073Z,73.30
2023-05-19T03:52:45.603Z,74.31
2023-05-19T03:55:24.260Z,74.40
2023-05-19T03:57:52.714Z,74.57
2023-05-19T04:00:20.408Z,74.75
2023-05-19T04:02:47.562Z,75.41
2023-05-19T04:05:14.993Z,75.67
2023-05-19T04:07:43.176Z,76.02
2023-05-19T04:10:10.564Z,75.83
2023-05-19T04:12:37.552Z,76.11
2023-05-19T04:15:06.114Z,76.11
2023-05-19T04:17:33.301Z,76.66
2023-05-19T04:20:00.339Z,76.74
2023-05-19T04:22:32.284Z,75.87
2023-05-19T04:25:00.305Z,75.43
2023-05-19T04:27:29.208Z,75.52
2023-05-19T04:29:56.313Z,75.56
2023-05-19T04:32:23.521Z,76.12
2023-05-19T04:34:51.881Z,75.10
2023-05-19T04:37:24.315Z,75.08
2023-05-19T04:39:52.378Z,75.06
2023-05-19T04:42:20.998Z,75.62
2023-05-19T04:44:51.970Z,75.50
2023-05-19T04:47:21.710Z,76.38
2023-05-19T04:49:49.565Z,76.62
2023-05-19T04:52:21.833Z,76.90
2023-05-19T04:54:48.984Z,77.07
2023-05-19T04:57:16.104Z,76.56
2023-05-19T04:59:43.098Z,77.16
2023-05-19T05:02:10.568Z,77.55
2023-05-19T05:04:40.669Z,77.87
2023-05-19T05:07:07.726Z,78.05
2023-05-19T05:09:34.967Z,78.00
2023-05-19T05:12:03.361Z,78.26
2023-05-19T05:14:31.039Z,78.47
2023-05-19T05:16:58.496Z,77.92
2023-05-19T05:19:26.511Z,78.84
2023-05-19T05:21:54.790Z,78.95
2023-05-19T05:24:22.066Z,78.52
2023-05-19T05:26:54.068Z,78.07
2023-05-19T05:29:21.517Z,78.47
2023-05-19T05:31:48.592Z,78.38
2023-05-19T05:34:15.901Z,78.05
2023-05-19T05:36:43.832Z,78.33
2023-05-19T05:39:10.966Z,77.85
2023-05-19T05:41:40.260Z,77.68
2023-05-19T05:44:11.245Z,77.79
2023-05-19T05:46:41.057Z,77.57
2023-05-19T05:49:08.589Z,77.60
2023-05-19T05:51:35.991Z,77.42
2023-05-19T05:54:06.247Z,77.56
2023-05-19T05:56:38.096Z,77.50
2023-05-19T05:59:08.026Z,76.55
2023-05-19T06:01:36.349Z,76.27
2023-05-19T06:04:05.554Z,76.77
2023-05-19T06:06:33.018Z,77.03
2023-05-19T06:09:02.171Z,76.04
2023-05-19T06:11:30.094Z,75.58
2023-05-19T06:13:59.095Z,75.57
2023-05-19T06:16:55.983Z,75.40
2023-05-19T06:19:25.466Z,75.67
2023-05-19T06:21:52.970Z,75.69
2023-05-19T06:24:20.047Z,75.62
2023-05-19T06:26:48.299Z,75.10
2023-05-19T06:29:17.467Z,74.55
2023-05-19T06:31:49.195Z,74.01
2023-05-19T06:34:17.822Z,73.52
2023-05-19T06:36:46.979Z,73.56
2023-05-19T06:39:14.798Z,73.23
2023-05-19T06:41:41.842Z,72.73
2023-05-19T06:44:09.366Z,71.54
2023-05-19T06:46:36.531Z,70.64
2023-05-19T06:49:04.527Z,70.21
2023-05-19T06:51:36.631Z,70.03
2023-05-19T06:54:04.622Z,69.39
2023-05-19T06:56:31.644Z,68.18
2023-05-19T06:58:58.735Z,67.68
2023-05-19T07:01:32.193Z,66.43
2023-05-19T07:03:59.806Z,65.69
2023-05-19T07:06:27.369Z,64.98
2023-05-19T07:08:54.582Z,64.74
2023-05-19T07:11:22.164Z,63.89
2023-05-19T07:13:49.533Z,63.14
2023-05-19T07:16:23.256Z,63.11
2023-05-19T07:18:50.638Z,62.86
2023-05-19T07:21:18.014Z,62.67
2023-05-19T07:23:45.092Z,63.30
2023-05-19T07:26:12.220Z,62.83
2023-05-19T07:28:41.421Z,63.38
2023-05-19T07:31:09.686Z,63.19
2023-05-19T07:33:36.955Z,62.92
2023-05-19T07:36:04.732Z,62.92
2023-05-19T07:38:34.636Z,63.28
2023-05-19T07:41:02.655Z,63.27
2023-05-19T07:43:29.823Z,63.00
2023-05-19T07:45:56.890Z,61.47
2023-05-19T07:48:25.856Z,59.70
2023-05-19T07:50:53.287Z,57.77
2023-05-19T07:53:20.945Z,56.21
2023-05-19T07:55:47.969Z,54.92
2023-05-19T07:58:15.733Z,54.58
2023-05-19T08:00:43.405Z,52.92
2023-05-19T08:03:10.799Z,51.34
2023-05-19T08:05:38.260Z,48.94
2023-05-19T08:08:06.116Z,45.84
2023-05-19T08:10:33.338Z,44.76
2023-05-19T08:13:00.603Z,43.27
2023-05-19T08:15:27.767Z,41.31
2023-05-19T08:17:55.054Z,37.99
2023-05-19T08:20:23.071Z,36.84
2023-05-19T08:22:50.306Z,34.55
2023-05-19T08:25:17.492Z,32.42
2023-05-19T08:27:44.515Z,32.01
2023-05-19T08:30:12.360Z,28.45
2023-05-19T08:32:39.727Z,26.94
2023-05-19T08:35:07.711Z,25.66
2023-05-19T08:37:37.270Z,24.31
2023-05-19T08:40:05.796Z,24.43
2023-05-19T08:42:34.046Z,22.98
2023-05-19T08:45:02.324Z,21.95
2023-05-19T08:47:33.496Z,21.49
2023-05-19T08:50:11.132Z,20.30
2023-05-19T08:53:03.206Z,19.31
2023-05-19T08:55:34.336Z,19.56
2023-05-19T08:58:04.532Z,18.97
2023-05-19T09:00:33.334Z,19.02
2023-05-19T09:05:34.123Z,19.26
2023-05-19T09:08:02.972Z,19.08
2023-05-19T09:10:30.082Z,19.16
2023-05-19T09:12:57.182Z,19.13
2023-05-19T09:15:28.464Z,19.16
2023-05-19T09:18:12.556Z,18.40
2023-05-19T09:20:44.807Z,18.74
2023-05-19T09:23:17.118Z,19.51
2023-05-19T09:25:53.046Z,20.00
2023-05-19T09:28:32.298Z,19.27
2023-05-19T09:31:12.447Z,19.42
2023-05-19T09:33:46.102Z,18.56
2023-05-19T09:36:14.015Z,18.91
2023-05-19T09:38:41.591Z,19.03
2023-05-19T09:41:09.804Z,18.83
2023-05-19T09:43:37.024Z,18.33
2023-05-19T09:46:11.242Z,18.08
2023-05-19T09:48:40.394Z,18.46
2023-05-19T09:51:11.124Z,18.69
2023-05-19T09:53:39.225Z,18.76
2023-05-19T09:56:08.995Z,18.84
2023-05-19T09:58:37.231Z,18.50
2023-05-19T10:01:05.503Z,18.86
2023-05-19T10:03:34.036Z,19.19
2023-05-19T10:06:02.134Z,19.13
2023-05-19T10:08:34.373Z,19.17
2023-05-19T10:11:02.631Z,19.02
2023-05-19T10:13:31.094Z,19.20
2023-05-19T10:15:59.914Z,19.44
2023-05-19T10:18:29.816Z,19.66
2023-05-19T10:20:58.302Z,20.04
2023-05-19T10:23:26.598Z,20.07
2023-05-19T10:25:57.872Z,20.22
2023-05-19T10:28:30.543Z,20.67
2023-05-19T10:31:01.136Z,21.03
2023-05-19T10:33:57.315Z,21.79
2023-05-19T10:36:39.320Z,22.35
2023-05-19T10:39:13.339Z,22.35
2023-05-19T10:42:38.337Z,22.87
2023-05-19T10:45:20.189Z,23.92
2023-05-19T10:47:47.537Z,24.10
2023-05-19T10:50:14.885Z,24.70
2023-05-19T10:52:41.859Z,25.14
2023-05-19T10:55:48.025Z,25.18
2023-05-19T10:58:15.139Z,25.28
2023-05-19T11:00:42.210Z,25.74
2023-05-19T11:03:16.704Z,24.97
2023-05-19T11:05:46.963Z,25.14
2023-05-19T11:08:14.286Z,24.68
2023-05-19T11:10:46.271Z,24.54
2023-05-19T11:13:22.628Z,24.99
2023-05-19T11:15:50.266Z,25.41
2023-05-19T11:18:17.545Z,25.47
2023-05-19T11:20:55.580Z,24.81
2023-05-19T11:23:25.983Z,25.19
2023-05-19T11:25:56.217Z,25.51
2023-05-19T11:28:28.211Z,25.21
2023-05-19T11:30:57.895Z,25.23
2023-05-19T11:33:29.276Z,25.40
2023-05-19T11:36:00.587Z,25.53
2023-05-19T11:38:30.171Z,25.98
2023-05-19T11:40:57.823Z,25.97
2023-05-19T11:43:26.255Z,26.17
2023-05-19T11:45:56.554Z,26.39
2023-05-19T11:48:24.867Z,26.57
2023-05-19T11:50:52.706Z,27.10
2023-05-19T11:53:20.232Z,26.23
2023-05-19T11:55:48.905Z,25.95
2023-05-19T11:58:17.168Z,26.00
2023-05-19T12:00:48.626Z,25.96
2023-05-19T12:03:17.618Z,26.17
2023-05-19T12:05:48.520Z,26.21
2023-05-19T12:08:19.582Z,26.62
2023-05-19T12:10:53.107Z,27.44
2023-05-19T12:13:21.134Z,27.09
2023-05-19T12:15:50.769Z,27.20
2023-05-19T12:18:18.041Z,27.66
2023-05-19T12:20:45.217Z,27.44
2023-05-19T12:23:12.931Z,27.25
2023-05-19T12:25:40.068Z,27.02
2023-05-19T12:28:07.507Z,26.53
2023-05-19T12:30:35.489Z,26.87
2023-05-19T12:33:03.673Z,26.84
2023-05-19T12:35:34.574Z,26.60
2023-05-19T12:38:08.124Z,27.33
2023-05-19T12:40:36.769Z,27.03
2023-05-19T12:43:04.534Z,27.52
2023-05-19T12:45:40.044Z,27.13
2023-05-19T12:48:17.105Z,28.41
2023-05-19T12:50:48.677Z,27.60
2023-05-19T12:53:15.832Z,27.89
2023-05-19T12:55:45.061Z,28.00
2023-05-19T12:58:12.968Z,28.25
2023-05-19T13:00:45.444Z,28.02
2023-05-19T13:03:17.878Z,27.85
2023-05-19T13:05:51.167Z,28.66
2023-05-19T13:08:24.234Z,28.27
2023-05-19T13:10:51.316Z,28.22
2023-05-19T13:13:19.494Z,27.98
2023-05-19T13:15:50.974Z,28.03
2023-05-19T13:18:18.438Z,27.35
2023-05-19T13:20:47.081Z,27.35
2023-05-19T13:23:14.733Z,27.84
2023-05-19T13:25:43.305Z,27.27
2023-05-19T13:28:10.918Z,27.45
2023-05-19T13:30:39.669Z,27.49
2023-05-19T13:33:06.982Z,28.01
2023-05-19T13:35:37.635Z,27.97
2023-05-19T13:38:06.893Z,29.13
2023-05-19T13:40:35.268Z,28.74
2023-05-19T13:43:04.304Z,28.77
2023-05-19T13:45:31.400Z,29.07
2023-05-19T13:47:58.546Z,28.75
2023-05-19T13:50:25.862Z,28.49
2023-05-19T13:52:53.481Z,29.18
2023-05-19T13:55:20.830Z,29.17
2023-05-19T13:57:47.915Z,29.00
2023-05-19T14:00:15.505Z,29.58
2023-05-19T14:02:43.135Z,29.39
2023-05-19T14:05:10.613Z,29.07
2023-05-19T14:07:37.618Z,29.53
2023-05-19T14:10:06.898Z,29.73
2023-05-19T14:12:49.482Z,29.81
2023-05-19T14:15:22.837Z,29.69
2023-05-19T14:17:49.889Z,30.15
2023-05-19T14:20:17.065Z,30.15
2023-05-19T14:22:44.086Z,30.09
2023-05-19T14:25:11.468Z,30.22
2023-05-19T14:27:40.056Z,29.95
2023-05-19T14:30:09.249Z,30.39
2023-05-19T14:32:36.404Z,30.13
2023-05-19T14:35:04.256Z,30.32
2023-05-19T14:37:32.285Z,29.79
2023-05-19T14:39:59.947Z,29.84
2023-05-19T14:42:26.990Z,30.24
2023-05-19T14:44:54.167Z,29.63
2023-05-19T14:47:21.615Z,29.73
2023-05-19T14:49:48.861Z,30.02
2023-05-19T14:52:16.148Z,29.59
2023-05-19T14:54:43.166Z,29.39
2023-05-19T14:57:10.161Z,29.84
2023-05-19T14:59:38.105Z,29.29
2023-05-19T15:02:05.731Z,29.51
2023-05-19T15:04:32.687Z,29.32
2023-05-19T15:07:09.858Z,29.52
2023-05-19T15:09:37.905Z,30.29
2023-05-19T15:12:05.209Z,30.74
2023-05-19T15:14:32.268Z,30.73
2023-05-19T15:16:59.488Z,30.97
2023-05-19T15:19:26.808Z,31.60
2023-05-19T15:21:54.245Z,31.68
2023-05-19T15:24:21.590Z,32.00
2023-05-19T15:26:48.906Z,32.23
2023-05-19T15:29:15.944Z,32.44
2023-05-19T15:31:43.144Z,32.72
2023-05-19T15:34:10.442Z,33.05
2023-05-19T15:36:37.545Z,32.65
2023-05-19T15:39:05.174Z,32.73
2023-05-19T15:41:32.259Z,33.47
2023-05-19T15:44:02.743Z,33.53
2023-05-19T15:46:30.700Z,33.83
2023-05-19T15:48:58.277Z,33.49
2023-05-19T15:51:26.318Z,33.31
2023-05-19T15:53:53.433Z,33.55
2023-05-19T15:56:21.691Z,33.71
2023-05-19T15:58:49.272Z,33.57
2023-05-19T16:01:17.014Z,33.80
2023-05-19T16:03:47.903Z,33.79
2023-05-19T16:06:14.967Z,33.60
2023-05-19T16:08:42.067Z,33.61
2023-05-19T16:11:09.202Z,33.96
2023-05-19T16:13:36.463Z,34.03
2023-05-19T16:16:03.824Z,33.79
2023-05-19T16:18:31.016Z,34.23
2023-05-19T16:20:58.159Z,34.56
2023-05-19T16:23:25.408Z,34.57
2023-05-19T16:25:54.763Z,34.59
2023-05-19T16:28:24.475Z,34.85
2023-05-19T16:30:52.127Z,34.74
2023-05-19T16:33:19.497Z,35.09
2023-05-19T16:35:46.611Z,34.97
2023-05-19T16:38:13.841Z,35.01
2023-05-19T16:40:41.032Z,35.86
2023-05-19T16:43:08.167Z,35.92
2023-05-19T16:45:35.350Z,36.20
2023-05-19T16:48:02.794Z,36.11
2023-05-19T16:50:30.878Z,36.36
2023-05-19T16:52:57.981Z,36.63
2023-05-19T16:55:26.840Z,37.42
2023-05-19T16:57:54.153Z,37.44
2023-05-19T17:00:21.674Z,37.62
2023-05-19T17:02:49.003Z,38.44
2023-05-19T17:05:16.146Z,38.83
2023-05-19T17:07:43.099Z,38.91
2023-05-19T17:10:10.528Z,39.28
2023-05-19T17:12:37.723Z,39.68
2023-05-19T17:15:05.358Z,39.73
2023-05-19T17:17:32.505Z,39.97
2023-05-19T17:19:59.951Z,40.30
2023-05-19T17:22:28.254Z,40.46
2023-05-19T17:24:57.641Z,40.84
2023-05-19T17:27:25.079Z,40.46
2023-05-19T17:29:52.164Z,40.79
2023-05-19T17:32:22.246Z,40.74
2023-05-19T17:34:49.469Z,40.96
2023-05-19T17:37:19.114Z,41.08
2023-05-19T17:39:46.227Z,41.35
2023-05-19T17:42:13.246Z,41.41
2023-05-19T17:44:40.484Z,41.49
2023-05-19T17:47:08.261Z,41.68
2023-05-19T17:49:35.280Z,41.91
2023-05-19T17:52:02.665Z,41.79
2023-05-19T17:54:30.089Z,42.48
2023-05-19T17:56:58.865Z,42.58
2023-05-19T17:59:26.410Z,43.03
2023-05-19T18:01:53.953Z,43.14
2023-05-19T18:04:21.502Z,43.18
2023-05-19T18:06:51.520Z,43.64
2023-05-19T18:09:23.423Z,44.15
2023-05-19T18:11:50.462Z,44.67
2023-05-19T18:14:17.726Z,44.99
2023-05-19T18:16:44.812Z,45.16
2023-05-19T18:19:12.063Z,45.36
2023-05-19T18:21:39.345Z,45.29
2023-05-19T18:24:07.234Z,45.49
2023-05-19T18:26:34.517Z,45.76
2023-05-19T18:29:05.064Z,45.79
2023-05-19T18:31:32.477Z,45.51
2023-05-19T18:33:59.608Z,45.78
2023-05-19T18:36:26.731Z,46.50
2023-05-19T18:38:55.171Z,46.18
2023-05-19T18:41:22.331Z,46.34
2023-05-19T18:43:49.467Z,46.63
2023-05-19T18:46:19.925Z,46.90
2023-05-19T18:48:47.186Z,46.99
2023-05-19T18:51:15.949Z,47.48
2023-05-19T18:53:43.132Z,47.39
2023-05-19T18:56:11.729Z,47.71
2023-05-19T18:58:38.936Z,48.58
2023-05-19T19:01:06.117Z,48.16
2023-05-19T19:03:33.200Z,48.14
2023-05-19T19:06:00.644Z,48.64
2023-05-19T19:08:27.684Z,48.24
2023-05-19T19:10:59.334Z,48.66
2023-05-19T19:13:26.704Z,48.76
2023-05-19T19:15:53.864Z,48.64
2023-05-19T19:18:20.995Z,48.73
2023-05-19T19:20:48.240Z,49.24
2023-05-19T19:23:15.299Z,49.42
2023-05-19T19:25:42.623Z,49.88
2023-05-19T19:28:10.591Z,50.47
2023-05-19T19:30:37.757Z,50.15
2023-05-19T19:33:06.548Z,49.54
2023-05-19T19:35:33.961Z,49.41
2023-05-19T19:38:01.141Z,49.85
2023-05-19T19:40:29.385Z,50.63
2023-05-19T19:42:56.764Z,50.71
2023-05-19T19:45:23.835Z,51.01
2023-05-19T19:47:51.885Z,50.98
2023-05-19T19:50:19.077Z,51.49
2023-05-19T19:52:46.109Z,51.57
2023-05-19T19:55:13.372Z,51.83
2023-05-19T19:57:40.574Z,51.43
2023-05-19T20:00:08.650Z,51.32
2023-05-19T20:02:45.551Z,51.43
2023-05-19T20:05:18.834Z,51.97
2023-05-19T20:07:45.989Z,51.96
2023-05-19T20:10:13.026Z,51.90
2023-05-19T20:12:39.991Z,52.22
2023-05-19T20:15:08.353Z,52.45
2023-05-19T20:17:35.643Z,51.83
2023-05-19T20:20:08.096Z,52.15
2023-05-19T20:22:35.241Z,51.87
2023-05-19T20:25:02.268Z,52.06
2023-05-19T20:27:29.583Z,51.80
2023-05-19T20:29:56.794Z,51.45
2023-05-19T20:32:24.221Z,51.60
2023-05-19T20:34:51.401Z,51.57
2023-05-19T20:37:18.641Z,50.94
2023-05-19T20:39:45.775Z,51.33
2023-05-19T20:42:12.884Z,51.06
2023-05-19T20:44:39.825Z,50.88
2023-05-19T20:47:08.309Z,50.71
2023-05-19T20:49:35.676Z,50.75
2023-05-19T20:52:02.772Z,51.24
2023-05-19T20:54:30.063Z,50.63
2023-05-19T20:56:57.336Z,50.82
2023-05-19T20:59:24.635Z,50.24
2023-05-19T21:01:51.724Z,50.78
2023-05-19T21:04:19.084Z,49.83
2023-05-19T21:06:46.392Z,49.90
2023-05-19T21:09:14.828Z,50.68
2023-05-19T21:11:41.885Z,50.71
2023-05-19T21:14:09.322Z,49.74
2023-05-19T21:16:38.907Z,49.62
2023-05-19T21:19:07.032Z,50.20
2023-05-19T21:21:34.468Z,50.15
2023-05-19T21:24:02.262Z,50.21
2023-05-19T21:26:29.264Z,50.66
2023-05-19T21:28:56.772Z,50.28
2023-05-19T21:31:23.941Z,50.99
2023-05-19T21:33:51.234Z,50.79
2023-05-19T21:36:18.500Z,50.95
2023-05-19T21:38:46.165Z,51.42
2023-05-19T21:41:13.110Z,50.95
2023-05-19T21:43:42.098Z,51.12
2023-05-19T21:46:09.504Z,51.34
2023-05-19T21:48:36.634Z,50.86
2023-05-19T21:51:03.956Z,51.72
2023-05-19T21:53:32.706Z,51.28
2023-05-19T21:56:00.155Z,51.39
2023-05-19T21:58:27.457Z,51.50
2023-05-19T22:00:54.665Z,52.17
2023-05-19T22:03:22.166Z,52.42
2023-05-19T22:05:53.440Z,52.32
2023-05-19T22:08:22.380Z,52.72
2023-05-19T22:10:51.154Z,52.65
2023-05-19T22:13:19.270Z,53.15
2023-05-19T22:15:46.724Z,53.23
2023-05-19T22:18:13.810Z,53.29
2023-05-19T22:20:41.047Z,53.21
2023-05-19T22:23:08.208Z,53.39
2023-05-19T22:25:35.382Z,53.38
2023-05-19T22:28:02.540Z,53.27
2023-05-19T22:30:29.611Z,53.24
2023-05-19T22:32:56.665Z,53.59
2023-05-19T22:35:24.379Z,53.71
2023-05-19T22:37:51.485Z,53.50
2023-05-19T22:40:18.598Z,53.93
2023-05-19T22:42:45.650Z,53.81
2023-05-19T22:45:12.780Z,54.07
2023-05-19T22:47:40.159Z,53.68
2023-05-19T22:50:10.238Z,53.64
2023-05-19T22:52:37.589Z,54.30
2023-05-19T22:55:05.267Z,53.81
2023-05-19T22:57:32.649Z,54.02
2023-05-19T22:59:59.766Z,53.76
2023-05-19T23:02:26.955Z,54.12
2023-05-19T23:04:54.413Z,53.88
2023-05-19T23:07:21.677Z,52.38
2023-05-19T23:09:48.769Z,52.34
2023-05-19T23:12:16.653Z,51.75
2023-05-19T23:14:44.000Z,51.50
2023-05-19T23:17:11.142Z,51.39
2023-05-19T23:19:38.118Z,50.97
2023-05-19T23:22:05.346Z,51.25
2023-05-19T23:24:32.542Z,50.82
2023-05-19T23:27:01.100Z,51.78
2023-05-19T23:29:28.128Z,51.68
2023-05-19T23:31:56.122Z,52.19
2023-05-19T23:34:23.296Z,51.68
2023-05-19T23:36:50.423Z,51.48
2023-05-19T23:39:17.554Z,51.46
2023-05-19T23:41:44.648Z,51.57
2023-05-19T23:44:11.810Z,52.04
2023-05-19T23:46:38.815Z,51.94
2023-05-19T23:49:06.444Z,51.93
2023-05-19T23:51:33.476Z,52.14
2023-05-19T23:54:00.540Z,51.63
2023-05-19T23:56:27.736Z,51.89
2023-05-19T23:58:54.789Z,52.33
